createdAt,value
2018-12-07T00:00:48.092Z,21.8
2018-12-07T00:01:38.772Z,21.8
2018-12-07T00:02:27.722Z,21.7
2018-12-07T00:03:17.754Z,21.8
2018-12-07T00:04:08.218Z,21.8
2018-12-07T00:04:58.439Z,21.8
2018-12-07T00:05:48.519Z,21.8
2018-12-07T00:06:38.384Z,21.8
2018-12-07T00:24:47.135Z,21.8
2018-12-07T00:25:36.255Z,21.8
2018-12-07T00:26:26.500Z,21.9
2018-12-07T00:27:17.302Z,21.8
2018-12-07T00:28:06.510Z,21.8
2018-12-07T00:28:56.545Z,21.8
2018-12-07T00:29:47.282Z,21.8
2018-12-07T00:30:36.973Z,21.8
2018-12-07T00:31:27.288Z,21.8
2018-12-07T00:32:17.437Z,21.8
2018-12-07T00:33:07.129Z,21.8
2018-12-07T00:33:56.125Z,21.8
2018-12-07T00:34:47.673Z,21.8
2018-12-07T00:35:37.309Z,21.8
2018-12-07T00:36:27.447Z,21.8
2018-12-07T00:37:17.700Z,21.8
2018-12-07T00:38:07.472Z,21.8
2018-12-07T00:38:57.870Z,21.8
2018-12-07T00:39:47.624Z,21.8
2018-12-07T00:40:37.455Z,21.8
2018-12-07T00:41:28.266Z,21.8
2018-12-07T00:42:17.211Z,21.8
2018-12-07T00:43:08.462Z,21.8
2018-12-07T00:43:58.461Z,21.8
2018-12-07T00:44:49.442Z,21.8
2018-12-07T00:45:37.966Z,21.8
2018-12-07T00:46:27.223Z,21.9
2018-12-07T00:47:17.821Z,21.8
2018-12-07T00:48:07.889Z,21.9
2018-12-07T00:48:59.004Z,21.9
2018-12-07T00:49:47.826Z,21.9
2018-12-07T00:50:38.383Z,21.9
2018-12-07T00:51:28.121Z,21.9
2018-12-07T00:52:17.616Z,21.9
2018-12-07T00:53:08.491Z,21.9
2018-12-07T00:53:58.855Z,21.9
2018-12-07T00:54:48.598Z,21.9
2018-12-07T00:55:39.210Z,21.9
2018-12-07T00:56:28.275Z,21.9
2018-12-07T00:57:17.948Z,21.8
2018-12-07T00:58:09.153Z,21.7
2018-12-07T00:58:58.868Z,21.4
2018-12-07T00:59:49.233Z,21.3
2018-12-07T01:00:38.802Z,21.3
2018-12-07T01:01:29.363Z,21.3
2018-12-07T01:02:18.368Z,21.3
2018-12-07T01:03:09.323Z,21.4
2018-12-07T01:04:00.103Z,21.4
2018-12-07T01:04:48.750Z,21.5
2018-12-07T01:05:40.136Z,21.5
2018-12-07T01:06:29.425Z,21.6
2018-12-07T01:07:18.925Z,21.6
2018-12-07T01:08:09.253Z,21.6
2018-12-07T01:08:59.310Z,21.6
2018-12-07T01:09:49.645Z,21.6
2018-12-07T01:10:40.050Z,21.7
2018-12-07T01:11:29.207Z,21.7
2018-12-07T01:12:19.612Z,21.7
2018-12-07T01:13:09.696Z,21.8
2018-12-07T01:14:00.872Z,21.7
2018-12-07T01:14:50.277Z,21.8
2018-12-07T01:15:40.419Z,21.8
2018-12-07T01:16:29.279Z,21.8
2018-12-07T01:17:20.401Z,21.8
2018-12-07T01:18:10.522Z,21.8
2018-12-07T01:18:59.787Z,21.8
2018-12-07T01:19:50.337Z,21.8
2018-12-07T01:20:40.194Z,21.8
2018-12-07T01:21:30.739Z,21.8
2018-12-07T01:22:20.801Z,21.8
2018-12-07T01:23:10.033Z,21.8
2018-12-07T01:24:00.403Z,21.8
2018-12-07T01:24:50.129Z,21.8
2018-12-07T01:25:41.284Z,21.8
2018-12-07T01:26:30.594Z,21.8
2018-12-07T01:27:20.530Z,21.8
2018-12-07T01:28:10.369Z,21.8
2018-12-07T01:29:00.676Z,21.8
2018-12-07T01:29:51.377Z,21.9
2018-12-07T01:30:41.350Z,21.9
2018-12-07T01:31:31.726Z,21.8
2018-12-07T01:32:21.759Z,21.9
2018-12-07T01:33:10.972Z,21.9
2018-12-07T01:34:01.046Z,21.9
2018-12-07T01:34:52.245Z,21.9
2018-12-07T01:35:41.810Z,21.9
2018-12-07T01:36:30.936Z,21.9
2018-12-07T01:37:22.425Z,21.9
2018-12-07T01:38:11.333Z,21.9
2018-12-07T01:39:01.925Z,21.9
2018-12-07T01:39:50.610Z,21.9
2018-12-07T01:40:41.862Z,21.9
2018-12-07T01:41:31.848Z,21.9
2018-12-07T01:42:22.150Z,21.9
2018-12-07T01:43:11.941Z,21.9
2018-12-07T01:44:02.005Z,21.9
2018-12-07T01:44:51.808Z,21.9
2018-12-07T01:45:42.104Z,21.9
2018-12-07T01:46:31.934Z,21.9
2018-12-07T01:47:22.497Z,21.9
2018-12-07T01:48:12.582Z,21.9
2018-12-07T01:49:01.327Z,21.9
2018-12-07T01:49:52.219Z,21.9
2018-12-07T01:50:42.030Z,21.8
2018-12-07T01:51:32.392Z,21.8
2018-12-07T01:52:22.437Z,21.8
2018-12-07T01:53:11.415Z,21.8
2018-12-07T01:54:02.230Z,21.8
2018-12-07T01:54:52.312Z,21.8
2018-12-07T01:55:42.872Z,21.8
2018-12-07T01:56:32.864Z,21.8
2018-12-07T01:57:23.474Z,21.8
2018-12-07T01:58:13.548Z,21.8
2018-12-07T01:59:02.757Z,21.9
2018-12-07T01:59:52.534Z,21.8
2018-12-07T02:00:43.480Z,21.9
2018-12-07T02:01:33.723Z,21.9
2018-12-07T02:02:22.997Z,21.9
2018-12-07T02:03:12.479Z,21.9
2018-12-07T02:04:03.956Z,21.9
2018-12-07T02:04:53.239Z,21.9
2018-12-07T02:05:43.491Z,21.9
2018-12-07T02:06:32.728Z,21.9
2018-12-07T02:07:24.416Z,21.9
2018-12-07T02:08:13.906Z,21.9
2018-12-07T02:09:03.183Z,21.9
2018-12-07T02:09:53.257Z,21.9
2018-12-07T02:10:44.411Z,21.9
2018-12-07T02:11:33.626Z,21.9
2018-12-07T02:12:23.908Z,21.9
2018-12-07T02:13:14.303Z,21.9
2018-12-07T02:14:04.345Z,21.9
2018-12-07T02:14:53.850Z,21.9
2018-12-07T02:15:43.913Z,21.9
2018-12-07T02:16:33.415Z,21.9
2018-12-07T02:17:24.119Z,21.9
2018-12-07T02:18:14.398Z,21.9
2018-12-07T02:19:04.138Z,21.9
2018-12-07T02:19:54.741Z,21.9
2018-12-07T02:20:44.812Z,21.9
2018-12-07T02:21:34.335Z,21.9
2018-12-07T02:22:24.165Z,21.9
2018-12-07T02:23:14.688Z,21.9
2018-12-07T02:24:05.047Z,21.9
2018-12-07T02:24:54.258Z,21.9
2018-12-07T02:25:45.417Z,21.9
2018-12-07T02:26:34.942Z,21.9
2018-12-07T02:27:24.962Z,21.9
2018-12-07T02:28:15.145Z,21.9
2018-12-07T02:29:05.172Z,21.9
2018-12-07T02:29:54.907Z,21.8
2018-12-07T02:30:45.010Z,21.8
2018-12-07T02:31:35.603Z,21.8
2018-12-07T02:32:25.383Z,21.9
2018-12-07T02:33:16.277Z,21.8
2018-12-07T02:34:05.498Z,21.8
2018-12-07T02:34:56.084Z,21.9
2018-12-07T02:35:45.009Z,21.9
2018-12-07T02:36:35.947Z,21.9
2018-12-07T02:37:25.952Z,21.9
2018-12-07T02:38:16.312Z,21.9
2018-12-07T02:39:06.045Z,21.9
2018-12-07T02:39:56.137Z,21.9
2018-12-07T02:40:46.659Z,21.9
2018-12-07T02:41:35.701Z,21.9
2018-12-07T02:42:26.323Z,21.9
2018-12-07T02:43:16.154Z,21.9
2018-12-07T02:44:05.986Z,21.9
2018-12-07T02:44:56.233Z,21.9
2018-12-07T02:45:45.987Z,21.9
2018-12-07T02:46:36.596Z,21.9
2018-12-07T02:47:26.236Z,21.9
2018-12-07T02:48:15.913Z,21.9
2018-12-07T02:49:06.876Z,21.9
2018-12-07T02:49:56.883Z,21.9
2018-12-07T02:50:46.598Z,21.9
2018-12-07T02:51:36.391Z,21.9
2018-12-07T02:52:26.870Z,22
2018-12-07T02:53:16.535Z,22
2018-12-07T02:54:06.970Z,22
2018-12-07T02:54:56.333Z,22
2018-12-07T02:55:47.248Z,22
2018-12-07T02:56:36.243Z,22
2018-12-07T02:57:26.536Z,22
2018-12-07T02:58:17.138Z,22
2018-12-07T02:59:06.621Z,22
2018-12-07T02:59:57.057Z,22
2018-12-07T03:00:47.639Z,22
2018-12-07T03:01:36.791Z,22
2018-12-07T03:02:27.149Z,21.9
2018-12-07T03:03:17.192Z,21.9
2018-12-07T03:04:08.117Z,21.9
2018-12-07T03:04:57.007Z,21.9
2018-12-07T03:05:47.640Z,21.9
2018-12-07T03:06:37.711Z,21.9
2018-12-07T03:07:27.209Z,21.9
2018-12-07T03:08:18.081Z,21.9
2018-12-07T03:09:08.087Z,21.9
2018-12-07T03:09:57.369Z,21.9
2018-12-07T03:10:47.726Z,21.9
2018-12-07T03:11:37.235Z,21.9
2018-12-07T03:12:28.189Z,21.9
2018-12-07T03:13:17.889Z,21.9
2018-12-07T03:14:08.154Z,21.9
2018-12-07T03:14:58.564Z,21.9
2018-12-07T03:15:48.056Z,21.9
2018-12-07T03:16:38.957Z,21.9
2018-12-07T03:17:28.446Z,21.9
2018-12-07T03:18:18.197Z,21.9
2018-12-07T03:19:08.211Z,21.9
2018-12-07T03:19:58.655Z,21.9
2018-12-07T03:20:48.713Z,21.9
2018-12-07T03:21:39.279Z,21.9
2018-12-07T03:22:27.941Z,21.9
2018-12-07T03:23:19.108Z,21.9
2018-12-07T03:24:08.963Z,21.9
2018-12-07T03:24:59.336Z,21.9
2018-12-07T03:25:49.358Z,21.9
2018-12-07T03:26:39.345Z,21.9
2018-12-07T03:27:29.485Z,21.9
2018-12-07T03:28:18.934Z,21.9
2018-12-07T03:29:08.715Z,21.9
2018-12-07T03:29:58.848Z,21.9
2018-12-07T03:30:50.069Z,21.9
2018-12-07T03:31:40.013Z,21.9
2018-12-07T03:32:29.499Z,22
2018-12-07T03:33:19.926Z,22
2018-12-07T03:34:10.147Z,22
2018-12-07T03:34:59.890Z,22
2018-12-07T03:35:50.243Z,22
2018-12-07T03:36:39.487Z,22
2018-12-07T03:37:30.370Z,22
2018-12-07T03:38:19.595Z,22
2018-12-07T03:39:10.220Z,22
2018-12-07T03:39:59.660Z,22
2018-12-07T03:40:49.202Z,22.1
2018-12-07T03:41:39.308Z,22
2018-12-07T03:42:30.423Z,22.1
2018-12-07T03:43:19.702Z,22.1
2018-12-07T03:44:10.294Z,22.1
2018-12-07T03:45:03.228Z,22
2018-12-07T03:45:50.105Z,22
2018-12-07T03:46:39.639Z,22
2018-12-07T03:47:29.924Z,21.9
2018-12-07T03:48:21.091Z,22
2018-12-07T03:49:11.196Z,21.9
2018-12-07T03:50:01.205Z,21.9
2018-12-07T03:50:50.804Z,21.9
2018-12-07T03:51:40.587Z,21.9
2018-12-07T03:52:31.097Z,21.9
2018-12-07T03:53:21.446Z,21.9
2018-12-07T03:54:12.847Z,21.9
2018-12-07T03:55:01.512Z,21.9
2018-12-07T03:55:51.378Z,21.9
2018-12-07T03:56:41.381Z,21.9
2018-12-07T03:57:31.488Z,21.9
2018-12-07T03:58:20.974Z,21.9
2018-12-07T03:59:10.491Z,21.9
2018-12-07T04:00:01.800Z,21.9
2018-12-07T04:00:51.479Z,21.9
2018-12-07T04:01:41.791Z,21.9
2018-12-07T04:02:31.008Z,21.9
2018-12-07T04:03:22.238Z,21.9
2018-12-07T04:04:11.680Z,21.9
2018-12-07T04:05:01.684Z,21.9
2018-12-07T04:05:52.372Z,21.9
2018-12-07T04:06:41.842Z,21.9
2018-12-07T04:07:31.828Z,21.9
2018-12-07T04:08:21.546Z,21.9
2018-12-07T04:09:11.534Z,21.9
2018-12-07T04:10:01.621Z,21.9
2018-12-07T04:10:51.361Z,21.9
2018-12-07T04:11:41.168Z,21.9
2018-12-07T04:12:31.723Z,21.9
2018-12-07T04:13:22.092Z,22
2018-12-07T04:14:11.023Z,22
2018-12-07T04:15:02.010Z,22
2018-12-07T04:15:52.788Z,22
2018-12-07T04:16:42.279Z,22
2018-12-07T04:17:32.276Z,21.9
2018-12-07T04:18:22.971Z,21.9
2018-12-07T04:19:12.168Z,21.8
2018-12-07T04:20:03.295Z,21.7
2018-12-07T04:20:53.631Z,21.6
2018-12-07T04:21:42.598Z,21.5
2018-12-07T04:22:32.340Z,21.5
2018-12-07T04:23:23.241Z,21.4
2018-12-07T04:24:12.694Z,21.4
2018-12-07T04:25:02.290Z,21.3
2018-12-07T04:25:53.392Z,21.3
2018-12-07T04:26:43.495Z,21.3
2018-12-07T04:27:32.968Z,21.3
2018-12-07T04:28:23.064Z,21.3
2018-12-07T04:29:13.390Z,21.3
2018-12-07T04:30:02.871Z,21.3
2018-12-07T04:30:54.462Z,21.3
2018-12-07T04:31:43.120Z,21.3
2018-12-07T04:32:33.357Z,21.3
2018-12-07T04:33:23.993Z,21.3
2018-12-07T04:34:13.750Z,21.3
2018-12-07T04:35:04.068Z,21.3
2018-12-07T04:35:54.453Z,21.3
2018-12-07T04:36:43.705Z,21.3
2018-12-07T04:54:00.212Z,21.4
2018-12-07T04:54:49.951Z,21.4
2018-12-07T04:55:39.689Z,21.4
2018-12-07T04:56:30.038Z,21.4
2018-12-07T04:57:20.390Z,21.4
2018-12-07T04:58:10.730Z,21.4
2018-12-07T04:59:00.931Z,21.4
2018-12-07T04:59:50.874Z,21.4
2018-12-07T05:00:40.119Z,21.4
2018-12-07T05:01:30.721Z,21.4
2018-12-07T05:02:20.471Z,21.4
2018-12-07T05:03:10.554Z,21.4
2018-12-07T05:03:59.973Z,21.3
2018-12-07T05:04:50.937Z,21.3
2018-12-07T05:05:40.973Z,21.3
2018-12-07T05:06:30.314Z,21.3
2018-12-07T05:07:20.826Z,21.3
2018-12-07T05:08:11.444Z,21.3
2018-12-07T05:09:01.698Z,21.3
2018-12-07T05:09:52.566Z,21.3
2018-12-07T05:10:41.321Z,21.2
2018-12-07T05:11:31.169Z,21.2
2018-12-07T05:12:20.920Z,21.2
2018-12-07T05:13:10.920Z,21.2
2018-12-07T05:14:00.681Z,21.2
2018-12-07T05:14:51.883Z,21.2
2018-12-07T05:15:41.128Z,21.3
2018-12-07T05:16:31.215Z,21.2
2018-12-07T05:17:21.481Z,21.2
2018-12-07T05:18:11.275Z,21.3
2018-12-07T05:19:01.049Z,21.3
2018-12-07T05:19:51.960Z,21.3
2018-12-07T05:20:41.593Z,21.3
2018-12-07T05:21:31.775Z,21.3
2018-12-07T05:22:21.890Z,21.3
2018-12-07T05:23:11.095Z,21.3
2018-12-07T05:24:01.627Z,21.3
2018-12-07T05:24:52.774Z,21.3
2018-12-07T05:25:42.130Z,21.3
2018-12-07T05:26:32.457Z,21.3
2018-12-07T05:27:21.885Z,21.3
2018-12-07T05:28:12.467Z,21.3
2018-12-07T05:29:02.815Z,21.3
2018-12-07T05:29:52.372Z,21.3
2018-12-07T05:30:42.185Z,21.4
2018-12-07T05:31:32.992Z,21.4
2018-12-07T05:32:22.102Z,21.4
2018-12-07T05:33:12.534Z,21.3
2018-12-07T05:34:02.597Z,21.4
2018-12-07T05:34:52.532Z,21.4
2018-12-07T05:35:42.201Z,21.4
2018-12-07T05:36:32.868Z,21.4
2018-12-07T05:37:22.916Z,21.4
2018-12-07T05:38:11.839Z,21.4
2018-12-07T05:39:01.904Z,21.4
2018-12-07T05:39:52.829Z,21.4
2018-12-07T05:40:42.577Z,21.4
2018-12-07T05:41:32.996Z,21.4
2018-12-07T05:42:22.954Z,21.4
2018-12-07T05:43:13.116Z,21.4
2018-12-07T05:44:03.182Z,21.4
2018-12-07T05:44:53.430Z,21.4
2018-12-07T05:45:43.324Z,21.3
2018-12-07T05:46:33.709Z,21.3
2018-12-07T05:47:22.728Z,21.3
2018-12-07T05:48:13.071Z,21.3
2018-12-07T05:49:03.110Z,21.3
2018-12-07T05:49:53.173Z,21.3
2018-12-07T05:50:43.753Z,21.3
2018-12-07T05:51:34.458Z,21.3
2018-12-07T05:52:24.113Z,21.3
2018-12-07T05:53:13.941Z,21.2
2018-12-07T05:54:04.583Z,21.2
2018-12-07T05:54:54.053Z,21.2
2018-12-07T05:55:44.076Z,21.2
2018-12-07T05:56:33.907Z,21.2
2018-12-07T05:57:24.403Z,21.2
2018-12-07T05:59:53.853Z,21.2
2018-12-07T06:00:43.880Z,21.2
2018-12-07T06:01:34.238Z,21.2
2018-12-07T06:02:23.848Z,21.2
2018-12-07T06:03:13.830Z,21.2
2018-12-07T06:04:04.149Z,21.2
2018-12-07T06:04:54.157Z,21.2
2018-12-07T06:05:44.872Z,21.2
2018-12-07T06:06:34.302Z,21.2
2018-12-07T06:07:24.012Z,21.2
2018-12-07T06:08:14.626Z,21.3
2018-12-07T06:09:05.193Z,21.3
2018-12-07T06:09:54.207Z,21.3
2018-12-07T06:10:44.466Z,21.3
2018-12-07T06:11:35.146Z,21.3
2018-12-07T06:12:24.614Z,21.3
2018-12-07T06:13:15.807Z,21.3
2018-12-07T06:14:04.981Z,21.3
2018-12-07T06:14:54.797Z,21.3
2018-12-07T06:15:44.586Z,21.3
2018-12-07T06:16:35.553Z,21.3
2018-12-07T06:17:25.490Z,21.3
2018-12-07T06:18:15.643Z,21.3
2018-12-07T06:19:04.833Z,21.3
2018-12-07T06:19:54.621Z,21.3
2018-12-07T06:20:45.320Z,21.3
2018-12-07T06:21:35.625Z,21.3
2018-12-07T06:22:25.323Z,21.3
2018-12-07T06:23:15.926Z,21.3
2018-12-07T06:24:06.047Z,21.3
2018-12-07T06:24:56.156Z,21.3
2018-12-07T06:25:46.213Z,21.3
2018-12-07T06:26:36.000Z,21.4
2018-12-07T06:27:25.422Z,21.3
2018-12-07T06:28:16.054Z,21.4
2018-12-07T06:29:06.336Z,21.4
2018-12-07T06:29:56.230Z,21.4
2018-12-07T06:30:45.619Z,21.4
2018-12-07T06:31:35.682Z,21.4
2018-12-07T06:32:26.305Z,21.4
2018-12-07T06:33:16.868Z,21.4
2018-12-07T06:34:05.595Z,21.4
2018-12-07T06:34:56.508Z,21.4
2018-12-07T06:35:45.971Z,21.4
2018-12-07T06:36:35.817Z,21.4
2018-12-07T06:37:26.356Z,21.3
2018-12-07T06:38:16.409Z,21.3
2018-12-07T06:39:06.394Z,21.3
2018-12-07T06:39:58.386Z,21.3
2018-12-07T06:40:47.626Z,21.3
2018-12-07T06:41:36.904Z,21.2
2018-12-07T06:42:26.181Z,21.2
2018-12-07T06:43:16.831Z,21.2
2018-12-07T06:44:06.993Z,21.2
2018-12-07T06:44:58.293Z,21.2
2018-12-07T06:45:46.471Z,21.2
2018-12-07T06:46:36.698Z,21.2
2018-12-07T06:47:28.091Z,21.2
2018-12-07T06:48:17.417Z,21.2
2018-12-07T06:49:08.015Z,21.2
2018-12-07T06:49:57.703Z,21.2
2018-12-07T06:50:48.369Z,21.2
2018-12-07T06:51:37.930Z,21.1
2018-12-07T06:52:28.207Z,20.9
2018-12-07T06:53:17.911Z,20.9
2018-12-07T06:54:07.543Z,20.8
2018-12-07T06:54:57.460Z,20.7
2018-12-07T06:55:47.540Z,20.6
2018-12-07T06:56:38.205Z,20.5
2018-12-07T06:57:27.910Z,20.4
2018-12-07T06:58:18.033Z,20.3
2018-12-07T06:59:08.030Z,20.3
2018-12-07T06:59:57.873Z,20.3
2018-12-07T07:00:47.894Z,20.3
2018-12-07T07:01:38.756Z,20.2
2018-12-07T07:02:29.052Z,20.1
2018-12-07T07:03:18.402Z,20.1
2018-12-07T07:04:08.921Z,20.1
2018-12-07T07:04:58.667Z,20.1
2018-12-07T07:05:49.297Z,20
2018-12-07T07:06:38.845Z,20
2018-12-07T07:07:27.800Z,20
2018-12-07T07:08:19.465Z,20
2018-12-07T07:09:08.800Z,20
2018-12-07T07:09:59.632Z,19.9
2018-12-07T07:10:49.689Z,19.9
2018-12-07T07:11:39.159Z,19.9
2018-12-07T07:12:31.390Z,19.9
2018-12-07T07:13:19.299Z,19.9
2018-12-07T07:14:08.744Z,19.9
2018-12-07T07:14:59.641Z,19.9
2018-12-07T07:15:49.446Z,19.9
2018-12-07T07:16:39.494Z,19.8
2018-12-07T07:17:29.076Z,19.8
2018-12-07T07:18:21.310Z,19.8
2018-12-07T07:19:09.691Z,19.8
2018-12-07T07:20:00.021Z,19.8
2018-12-07T07:20:49.483Z,19.8
2018-12-07T07:21:40.128Z,19.8
2018-12-07T07:22:29.901Z,19.8
2018-12-07T07:23:19.426Z,19.8
2018-12-07T07:24:10.118Z,19.8
2018-12-07T07:25:00.613Z,19.8
2018-12-07T07:25:50.775Z,19.8
2018-12-07T07:26:40.175Z,19.8
2018-12-07T07:27:30.023Z,19.8
2018-12-07T07:28:20.018Z,19.9
2018-12-07T07:29:11.271Z,19.9
2018-12-07T07:30:01.108Z,19.9
2018-12-07T07:30:51.958Z,19.9
2018-12-07T07:31:48.718Z,19.9
2018-12-07T07:32:30.305Z,19.9
2018-12-07T07:33:20.633Z,19.9
2018-12-07T07:34:11.235Z,19.9
2018-12-07T07:35:00.482Z,19.9
2018-12-07T07:35:51.090Z,19.9
2018-12-07T07:36:40.970Z,19.9
2018-12-07T07:37:31.174Z,19.9
2018-12-07T07:38:20.140Z,19.9
2018-12-07T07:39:11.793Z,19.9
2018-12-07T07:40:00.308Z,19.9
2018-12-07T07:40:51.134Z,19.9
2018-12-07T07:41:40.679Z,19.9
2018-12-07T07:42:32.220Z,19.9
2018-12-07T07:43:20.769Z,19.9
2018-12-07T07:44:12.179Z,19.9
2018-12-07T07:45:01.461Z,19.9
2018-12-07T07:45:51.479Z,19.9
2018-12-07T07:46:41.357Z,19.9
2018-12-07T07:47:31.887Z,20
2018-12-07T07:48:21.667Z,20
2018-12-07T07:49:11.758Z,20
2018-12-07T07:50:02.066Z,20
2018-12-07T07:50:51.374Z,20
2018-12-07T07:51:42.729Z,19.9
2018-12-07T07:52:31.676Z,19.9
2018-12-07T07:53:21.566Z,19.9
2018-12-07T07:54:12.359Z,19.9
2018-12-07T07:55:02.429Z,19.9
2018-12-07T07:55:52.456Z,19.9
2018-12-07T07:56:42.238Z,19.9
2018-12-07T07:57:32.023Z,19.9
2018-12-07T07:58:22.671Z,19.9
2018-12-07T07:59:11.400Z,19.9
2018-12-07T08:00:02.493Z,19.9
2018-12-07T08:00:53.106Z,19.9
2018-12-07T08:01:42.578Z,19.9
2018-12-07T08:02:33.864Z,19.9
2018-12-07T08:03:22.423Z,20
2018-12-07T08:04:12.219Z,20
2018-12-07T08:05:03.068Z,20
2018-12-07T08:05:52.842Z,20
2018-12-07T08:06:42.373Z,20.1
2018-12-07T08:07:32.991Z,20.1
2018-12-07T08:08:23.575Z,20.1
2018-12-07T08:09:13.677Z,20.1
2018-12-07T08:10:02.863Z,20.2
2018-12-07T08:10:53.742Z,20.3
2018-12-07T08:11:43.068Z,20.3
2018-12-07T08:12:33.421Z,20.4
2018-12-07T08:13:23.375Z,20.5
2018-12-07T08:14:13.765Z,20.6
2018-12-07T08:15:03.230Z,20.7
2018-12-07T08:15:53.355Z,20.8
2018-12-07T08:16:43.194Z,20.9
2018-12-07T08:17:33.450Z,20.9
2018-12-07T08:18:24.087Z,20.9
2018-12-07T08:19:13.472Z,21
2018-12-07T08:20:04.219Z,21
2018-12-07T08:20:53.435Z,21.1
2018-12-07T08:21:43.187Z,21.1
2018-12-07T08:22:34.014Z,21.1
2018-12-07T08:23:23.162Z,21.1
2018-12-07T08:24:14.518Z,21.1
2018-12-07T08:25:03.209Z,21.1
2018-12-07T08:25:53.812Z,21.1
2018-12-07T08:26:44.424Z,21.1
2018-12-07T08:27:34.954Z,21.1
2018-12-07T08:28:26.109Z,21.1
2018-12-07T08:29:15.063Z,21.1
2018-12-07T08:30:04.871Z,21.1
2018-12-07T08:30:54.954Z,21.1
2018-12-07T08:31:44.761Z,21.1
2018-12-07T08:32:34.969Z,21.1
2018-12-07T08:33:25.406Z,21.1
2018-12-07T08:39:15.450Z,21.2
2018-12-07T08:40:05.543Z,21.2
2018-12-07T08:40:56.093Z,21.2
2018-12-07T08:41:45.407Z,21.3
2018-12-07T08:42:35.415Z,21.3
2018-12-07T08:43:26.085Z,21.3
2018-12-07T08:44:16.068Z,21.3
2018-12-07T08:45:05.661Z,21.3
2018-12-07T08:45:54.527Z,21.3
2018-12-07T08:46:45.495Z,21.3
2018-12-07T08:47:35.507Z,21.3
2018-12-07T08:48:25.813Z,21.3
2018-12-07T08:49:15.857Z,21.3
2018-12-07T08:50:06.071Z,21.3
2018-12-07T08:50:56.273Z,21.3
2018-12-07T08:51:46.585Z,21.3
2018-12-07T08:52:35.859Z,21.3
2018-12-07T09:09:12.569Z,21.1
2018-12-07T09:15:02.866Z,21.2
2018-12-07T09:15:52.390Z,21.2
2018-12-07T09:16:43.951Z,21.2
2018-12-07T09:17:33.285Z,21.3
2018-12-07T09:18:23.124Z,21.3
2018-12-07T09:19:13.426Z,21.2
2018-12-07T09:20:03.018Z,21.2
2018-12-07T09:21:00.936Z,21.2
2018-12-07T09:21:43.808Z,21.2
2018-12-07T09:22:33.371Z,21.2
2018-12-07T09:23:23.921Z,21.2
2018-12-07T09:25:03.280Z,20.9
2018-12-07T09:25:53.872Z,20.6
2018-12-07T09:26:44.255Z,20.3
2018-12-07T09:27:33.421Z,20
2018-12-07T09:28:23.627Z,19.7
2018-12-07T09:29:13.820Z,19.4
2018-12-07T09:30:03.325Z,19.1
2018-12-07T09:30:53.685Z,18.9
2018-12-07T09:31:43.510Z,18.8
2018-12-07T09:32:34.339Z,18.5
2018-12-07T09:33:24.947Z,18.3
2018-12-07T09:34:14.159Z,18.1
2018-12-07T09:35:04.044Z,18
2018-12-07T09:35:53.436Z,17.9
2018-12-07T09:36:44.840Z,17.9
2018-12-07T09:37:36.319Z,17.8
2018-12-07T09:38:24.446Z,17.7
2018-12-07T09:39:14.217Z,17.6
2018-12-07T09:40:04.111Z,17.5
2018-12-07T09:40:54.344Z,17.5
2018-12-07T09:41:44.989Z,17.4
2018-12-07T09:42:34.503Z,17.4
2018-12-07T09:43:24.771Z,17.4
2018-12-07T09:44:15.394Z,17.3
2018-12-07T09:45:04.481Z,17.3
2018-12-07T09:45:55.486Z,17.2
2018-12-07T09:46:45.308Z,17.1
2018-12-07T09:47:34.604Z,17.1
2018-12-07T09:51:45.428Z,16.9
2018-12-07T09:52:35.977Z,16.9
2018-12-07T09:53:25.563Z,16.8
2018-12-07T09:54:15.556Z,16.8
2018-12-07T09:55:05.893Z,16.8
2018-12-07T09:55:56.341Z,16.8
2018-12-07T09:56:45.471Z,16.7
2018-12-07T09:57:36.088Z,16.8
2018-12-07T09:58:25.940Z,16.9
2018-12-07T09:59:15.335Z,17.1
2018-12-07T10:00:05.718Z,17.3
2018-12-07T10:00:56.868Z,17.5
2018-12-07T10:01:46.045Z,17.7
2018-12-07T10:02:35.838Z,17.9
2018-12-07T10:03:26.446Z,18.1
2018-12-07T10:04:16.543Z,18.4
2018-12-07T10:05:06.607Z,18.6
2018-12-07T10:05:56.126Z,18.8
2018-12-07T10:06:46.375Z,18.9
2018-12-07T10:07:36.278Z,19.1
2018-12-07T10:08:27.112Z,19.3
2018-12-07T10:09:16.845Z,19.4
2018-12-07T10:10:06.814Z,19.6
2018-12-07T10:10:56.433Z,19.7
2018-12-07T10:11:45.993Z,19.8
2018-12-07T10:12:36.940Z,19.9
2018-12-07T10:13:26.155Z,20
2018-12-07T10:14:16.711Z,20.1
2018-12-07T10:15:06.720Z,20.1
2018-12-07T10:15:57.045Z,20.2
2018-12-07T10:16:47.174Z,20.3
2018-12-07T10:17:36.503Z,20.3
2018-12-07T10:18:26.892Z,20.3
2018-12-07T10:19:17.539Z,20.4
2018-12-07T10:20:07.997Z,20.4
2018-12-07T10:20:57.709Z,20.4
2018-12-07T10:21:46.869Z,20.4
2018-12-07T10:22:39.502Z,20.4
2018-12-07T10:23:27.915Z,20.4
2018-12-07T10:24:17.919Z,20.5
2018-12-07T10:25:08.448Z,20.5
2018-12-07T10:25:58.012Z,20.5
2018-12-07T10:26:48.359Z,20.5
2018-12-07T10:27:37.832Z,20.6
2018-12-07T10:28:27.631Z,20.6
2018-12-07T10:29:17.752Z,20.6
2018-12-07T10:30:08.881Z,20.6
2018-12-07T10:30:57.827Z,20.6
2018-12-07T10:31:48.681Z,20.6
2018-12-07T10:32:38.499Z,20.7
2018-12-07T10:33:28.053Z,20.7
2018-12-07T10:34:18.866Z,20.8
2018-12-07T10:35:08.439Z,20.7
2018-12-07T10:35:58.946Z,20.8
2018-12-07T10:36:48.507Z,20.8
2018-12-07T10:37:38.544Z,20.8
2018-12-07T10:38:28.849Z,20.8
2018-12-07T10:39:18.449Z,20.8
2018-12-07T10:40:08.834Z,20.9
2018-12-07T10:40:58.196Z,20.9
2018-12-07T10:41:49.144Z,20.9
2018-12-07T10:42:39.378Z,20.9
2018-12-07T10:43:28.986Z,20.9
2018-12-07T10:44:19.283Z,20.9
2018-12-07T10:45:08.812Z,20.9
2018-12-07T10:45:58.563Z,20.9
2018-12-07T10:46:49.467Z,20.8
2018-12-07T10:47:39.906Z,20.9
2018-12-07T10:48:28.202Z,20.9
2018-12-07T10:49:19.453Z,20.9
2018-12-07T10:50:09.442Z,20.8
2018-12-07T10:50:59.735Z,20.8
2018-12-07T10:51:50.108Z,20.8
2018-12-07T10:52:40.103Z,20.8
2018-12-07T10:53:29.733Z,20.8
2018-12-07T10:54:19.703Z,20.8
2018-12-07T10:55:12.006Z,20.8
2018-12-07T10:55:59.596Z,20.8
2018-12-07T10:56:49.948Z,20.8
2018-12-07T10:57:39.948Z,20.8
2018-12-07T10:58:30.300Z,20.8
2018-12-07T10:59:20.020Z,20.8
2018-12-07T11:00:10.363Z,20.8
2018-12-07T11:00:59.832Z,20.8
2018-12-07T11:01:50.423Z,20.8
2018-12-07T11:02:42.305Z,20.8
2018-12-07T11:03:29.859Z,20.8
2018-12-07T11:04:20.233Z,20.8
2018-12-07T11:05:11.039Z,20.9
2018-12-07T11:06:00.763Z,20.8
2018-12-07T11:06:50.900Z,20.9
2018-12-07T11:07:40.877Z,20.9
2018-12-07T11:08:30.694Z,20.9
2018-12-07T11:09:19.679Z,20.9
2018-12-07T11:10:10.406Z,20.9
2018-12-07T11:11:00.900Z,20.9
2018-12-07T11:11:50.957Z,20.9
2018-12-07T11:12:41.041Z,20.9
2018-12-07T11:13:31.013Z,20.9
2018-12-07T11:14:21.702Z,20.9
2018-12-07T11:15:10.972Z,20.9
2018-12-07T11:16:01.445Z,20.9
2018-12-07T11:16:51.521Z,20.9
2018-12-07T11:17:40.851Z,20.9
2018-12-07T11:18:32.192Z,20.9
2018-12-07T11:19:20.683Z,20.9
2018-12-07T11:20:11.272Z,20.8
2018-12-07T11:21:01.299Z,20.8
2018-12-07T11:21:51.664Z,20.8
2018-12-07T11:22:41.424Z,20.8
2018-12-07T11:23:30.971Z,20.8
2018-12-07T11:24:21.281Z,20.8
2018-12-07T11:25:11.361Z,20.8
2018-12-07T11:26:01.749Z,20.8
2018-12-07T11:26:51.423Z,20.8
2018-12-07T11:27:41.553Z,20.8
2018-12-07T11:28:31.348Z,20.8
2018-12-07T11:29:21.601Z,20.8
2018-12-07T11:30:12.071Z,20.8
2018-12-07T11:31:00.881Z,20.8
2018-12-07T11:31:52.623Z,20.8
2018-12-07T11:32:42.403Z,20.8
2018-12-07T11:33:32.163Z,20.8
2018-12-07T11:34:21.649Z,20.8
2018-12-07T11:35:12.136Z,20.8
2018-12-07T11:36:09.572Z,20.8
2018-12-07T11:36:51.838Z,20.8
2018-12-07T11:37:42.035Z,20.8
2018-12-07T11:38:32.602Z,20.9
2018-12-07T11:39:22.613Z,20.9
2018-12-07T11:40:12.984Z,20.9
2018-12-07T11:41:02.205Z,20.9
2018-12-07T11:41:52.495Z,20.9
2018-12-07T11:42:42.309Z,20.9
2018-12-07T11:43:32.865Z,20.9
2018-12-07T11:44:22.380Z,20.9
2018-12-07T11:45:12.983Z,20.9
2018-12-07T11:46:03.632Z,20.9
2018-12-07T11:46:52.758Z,20.9
2018-12-07T11:47:42.905Z,20.9
2018-12-07T11:48:33.236Z,20.9
2018-12-07T11:49:22.737Z,20.9
2018-12-07T11:50:13.269Z,20.9
2018-12-07T11:51:04.113Z,20.9
2018-12-07T11:51:53.479Z,20.9
2018-12-07T11:52:44.065Z,20.9
2018-12-07T11:53:34.145Z,20.9
2018-12-07T11:54:23.327Z,20.8
2018-12-07T11:55:13.710Z,20.8
2018-12-07T11:56:04.796Z,20.8
2018-12-07T11:56:53.749Z,20.8
2018-12-07T11:57:43.756Z,20.8
2018-12-07T11:58:33.327Z,20.8
2018-12-07T11:59:24.204Z,20.8
2018-12-07T12:00:14.209Z,20.8
2018-12-07T12:01:05.487Z,20.8
2018-12-07T12:01:54.624Z,20.8
2018-12-07T12:02:44.709Z,20.8
2018-12-07T12:03:34.816Z,20.8
2018-12-07T12:04:24.517Z,20.8
2018-12-07T12:05:14.539Z,20.8
2018-12-07T12:06:04.749Z,20.8
2018-12-07T12:06:55.224Z,20.8
2018-12-07T12:07:44.783Z,20.8
2018-12-07T12:08:35.379Z,20.8
2018-12-07T12:09:25.129Z,20.8
2018-12-07T12:10:14.403Z,20.8
2018-12-07T12:11:04.736Z,20.9
2018-12-07T12:11:56.077Z,20.9
2018-12-07T12:12:45.311Z,20.9
2018-12-07T12:13:35.724Z,20.9
2018-12-07T12:14:25.776Z,20.9